createdAt,value
2019-06-27T00:01:23.844Z,22.28
2019-06-27T00:03:51.238Z,22.42
2019-06-27T00:06:18.657Z,22.33
2019-06-27T00:08:46.063Z,22.17
2019-06-27T00:11:13.466Z,22.16
2019-06-27T00:13:40.862Z,22.14
2019-06-27T00:16:08.284Z,22.11
2019-06-27T00:18:35.684Z,21.96
2019-06-27T00:21:03.157Z,21.99
2019-06-27T00:23:30.535Z,21.91
2019-06-27T00:25:57.965Z,21.94
2019-06-27T00:28:25.359Z,21.89
2019-06-27T00:30:52.748Z,21.91
2019-06-27T00:33:20.111Z,21.81
2019-06-27T00:35:47.522Z,21.81
2019-06-27T00:38:15.066Z,21.68
2019-06-27T00:40:42.411Z,21.71
2019-06-27T00:43:09.809Z,21.68
2019-06-27T00:45:37.225Z,21.59
2019-06-27T00:48:04.706Z,21.53
2019-06-27T00:50:32.119Z,21.47
2019-06-27T00:52:59.590Z,21.45
2019-06-27T00:55:27.093Z,21.42
2019-06-27T00:57:54.472Z,21.45
2019-06-27T01:00:21.878Z,21.47
2019-06-27T01:02:49.276Z,21.50
2019-06-27T01:05:16.644Z,21.49
2019-06-27T01:07:44.083Z,21.38
2019-06-27T01:10:11.791Z,21.42
2019-06-27T01:12:39.314Z,21.49
2019-06-27T01:15:06.961Z,21.44
2019-06-27T01:17:34.332Z,21.49
2019-06-27T01:20:01.822Z,21.33
2019-06-27T01:22:29.231Z,21.40
2019-06-27T01:24:56.600Z,21.31
2019-06-27T01:27:29.965Z,21.18
2019-06-27T01:29:53.309Z,21.27
2019-06-27T01:32:20.757Z,21.16
2019-06-27T01:34:48.144Z,21.12
2019-06-27T01:37:15.537Z,21.19
2019-06-27T01:39:42.946Z,21.14
2019-06-27T01:42:10.322Z,21.04
2019-06-27T01:45:00.426Z,20.95
2019-06-27T01:47:27.814Z,21.05
2019-06-27T01:49:55.229Z,21.01
2019-06-27T01:52:23.093Z,21.01
2019-06-27T01:54:50.530Z,21.00
2019-06-27T01:57:18.006Z,20.98
2019-06-27T01:59:45.407Z,21.00
2019-06-27T02:02:12.919Z,21.00
2019-06-27T02:04:40.257Z,20.92
2019-06-27T02:07:07.653Z,21.04
2019-06-27T02:09:35.232Z,20.89
2019-06-27T02:12:02.717Z,20.85
2019-06-27T02:14:30.103Z,20.90
2019-06-27T02:16:57.613Z,20.87
2019-06-27T02:19:25.067Z,20.84
2019-06-27T02:21:52.510Z,20.94
2019-06-27T02:24:19.929Z,20.89
2019-06-27T02:26:47.380Z,20.85
2019-06-27T02:29:14.802Z,20.79
2019-06-27T02:31:42.405Z,20.69
2019-06-27T02:34:09.770Z,20.63
2019-06-27T02:36:37.179Z,20.70
2019-06-27T02:39:06.011Z,20.64
2019-06-27T02:41:33.394Z,20.59
2019-06-27T02:44:00.908Z,20.49
2019-06-27T02:46:28.320Z,20.43
2019-06-27T02:48:55.713Z,20.41
2019-06-27T02:51:23.125Z,20.34
2019-06-27T02:53:50.634Z,20.36
2019-06-27T02:56:18.040Z,20.36
2019-06-27T02:58:45.498Z,20.38
2019-06-27T03:01:12.918Z,20.45
2019-06-27T03:03:40.321Z,20.46
2019-06-27T03:06:07.919Z,20.51
2019-06-27T03:08:35.322Z,20.68
2019-06-27T03:11:02.834Z,20.44
2019-06-27T03:13:30.215Z,20.67
2019-06-27T03:15:57.634Z,20.69
2019-06-27T03:18:25.042Z,20.68
2019-06-27T03:20:52.487Z,20.64
2019-06-27T03:23:19.825Z,20.62
2019-06-27T03:25:47.211Z,20.48
2019-06-27T03:28:14.665Z,20.20
2019-06-27T03:30:42.171Z,20.32
2019-06-27T03:33:12.140Z,20.27
2019-06-27T03:35:39.629Z,20.12
2019-06-27T03:38:07.048Z,20.30
2019-06-27T03:40:34.474Z,20.27
2019-06-27T03:43:01.851Z,20.29
2019-06-27T03:45:29.270Z,20.18
2019-06-27T03:47:56.670Z,20.19
2019-06-27T03:50:24.047Z,20.21
2019-06-27T03:52:51.461Z,20.27
2019-06-27T03:55:18.920Z,20.36
2019-06-27T03:57:46.506Z,20.42
2019-06-27T04:00:20.926Z,20.41
2019-06-27T04:02:48.331Z,20.45
2019-06-27T04:05:15.687Z,20.69
2019-06-27T04:07:43.118Z,20.87
2019-06-27T04:10:10.542Z,20.89
2019-06-27T04:12:38.043Z,21.01
2019-06-27T04:15:05.951Z,21.17
2019-06-27T04:17:33.355Z,21.44
2019-06-27T04:20:00.759Z,21.62
2019-06-27T04:22:28.218Z,21.84
2019-06-27T04:24:55.589Z,22.04
2019-06-27T04:27:22.984Z,22.23
2019-06-27T04:29:50.404Z,22.67
2019-06-27T04:32:17.759Z,23.26
2019-06-27T04:34:45.139Z,23.74
2019-06-27T04:37:12.593Z,24.16
2019-06-27T04:39:39.979Z,24.53
2019-06-27T04:42:07.389Z,24.82
2019-06-27T04:44:34.815Z,25.17
2019-06-27T04:47:02.185Z,25.32
2019-06-27T04:49:29.601Z,25.04
2019-06-27T04:51:57.002Z,25.04
2019-06-27T04:54:24.454Z,25.03
2019-06-27T04:56:51.844Z,25.04
2019-06-27T04:59:19.259Z,24.92
2019-06-27T05:01:46.648Z,25.02
2019-06-27T05:04:14.045Z,25.13
2019-06-27T05:06:41.445Z,25.37
2019-06-27T05:09:08.812Z,25.35
2019-06-27T05:11:36.325Z,25.44
2019-06-27T05:14:03.794Z,25.47
2019-06-27T05:16:31.196Z,25.71
2019-06-27T05:18:58.579Z,25.54
2019-06-27T05:21:26.092Z,25.80
2019-06-27T05:23:53.489Z,25.72
2019-06-27T05:26:20.911Z,25.49
2019-06-27T05:28:48.328Z,26.12
2019-06-27T05:31:15.714Z,26.51
2019-06-27T05:33:43.132Z,26.57
2019-06-27T05:36:10.520Z,26.75
2019-06-27T05:38:37.962Z,27.15
2019-06-27T05:41:05.405Z,27.36
2019-06-27T05:43:32.764Z,27.36
2019-06-27T05:46:00.219Z,27.13
2019-06-27T05:48:27.555Z,27.05
2019-06-27T05:50:54.932Z,27.03
2019-06-27T05:53:22.549Z,26.75
2019-06-27T05:55:50.961Z,26.34
2019-06-27T05:58:18.357Z,26.66
2019-06-27T06:00:45.748Z,26.76
2019-06-27T06:03:13.165Z,26.79
2019-06-27T06:05:40.503Z,27.22
2019-06-27T06:08:07.958Z,27.34
2019-06-27T06:10:35.442Z,27.62
2019-06-27T06:13:02.828Z,27.47
2019-06-27T06:15:30.266Z,27.46
2019-06-27T06:17:57.675Z,27.53
2019-06-27T06:20:25.847Z,27.79
2019-06-27T06:22:53.266Z,28.01
2019-06-27T06:25:20.676Z,28.34
2019-06-27T06:27:48.087Z,28.57
2019-06-27T06:30:16.195Z,28.90
2019-06-27T06:32:43.609Z,28.94
2019-06-27T06:35:11.118Z,29.47
2019-06-27T06:37:38.610Z,29.70
2019-06-27T06:40:06.628Z,29.77
2019-06-27T06:42:34.008Z,29.40
2019-06-27T06:45:01.419Z,29.53
2019-06-27T06:47:28.797Z,29.32
2019-06-27T06:49:56.173Z,29.23
2019-06-27T06:52:23.606Z,29.37
2019-06-27T06:54:51.052Z,29.43
2019-06-27T06:57:18.518Z,29.74
2019-06-27T06:59:45.874Z,29.99
2019-06-27T07:02:13.330Z,30.12
2019-06-27T07:04:40.733Z,30.68
2019-06-27T07:07:08.176Z,30.82
2019-06-27T07:09:35.597Z,31.01
2019-06-27T07:12:03.143Z,31.33
2019-06-27T07:14:30.500Z,30.94
2019-06-27T07:16:57.931Z,30.79
2019-06-27T07:19:25.389Z,30.61
2019-06-27T07:21:52.915Z,30.96
2019-06-27T07:24:20.399Z,31.25
2019-06-27T07:26:47.839Z,30.74
2019-06-27T07:29:15.242Z,30.80
2019-06-27T07:31:42.844Z,31.57
2019-06-27T07:34:10.312Z,31.47
2019-06-27T07:36:37.634Z,31.01
2019-06-27T07:39:05.693Z,30.74
2019-06-27T07:41:33.109Z,30.81
2019-06-27T07:44:00.547Z,30.21
2019-06-27T07:46:27.946Z,30.41
2019-06-27T07:48:55.378Z,30.36
2019-06-27T07:51:22.762Z,30.20
2019-06-27T07:53:50.191Z,30.10
2019-06-27T07:56:17.679Z,30.20
2019-06-27T07:58:45.074Z,30.75
2019-06-27T08:01:12.523Z,31.52
2019-06-27T08:03:40.105Z,31.30
2019-06-27T08:06:07.571Z,31.22
2019-06-27T08:08:34.973Z,31.19
2019-06-27T08:11:02.646Z,30.69
2019-06-27T08:13:30.195Z,30.84
2019-06-27T08:15:57.691Z,30.74
2019-06-27T08:18:28.161Z,31.00
2019-06-27T08:20:54.400Z,30.63
2019-06-27T08:23:21.834Z,30.47
2019-06-27T08:25:49.299Z,30.81
2019-06-27T08:28:16.832Z,30.68
2019-06-27T08:30:44.351Z,30.92
2019-06-27T08:33:11.737Z,30.85
2019-06-27T08:35:39.261Z,30.78
2019-06-27T08:38:06.753Z,30.55
2019-06-27T08:40:34.203Z,30.59
2019-06-27T08:43:01.662Z,30.12
2019-06-27T08:45:29.130Z,29.87
2019-06-27T08:47:56.605Z,29.95
2019-06-27T08:50:24.137Z,30.37
2019-06-27T08:52:51.537Z,30.67
2019-06-27T08:55:18.972Z,30.78
2019-06-27T08:57:46.333Z,30.91
2019-06-27T09:00:14.224Z,30.91
2019-06-27T09:02:41.675Z,30.85
2019-06-27T09:05:09.260Z,31.00
2019-06-27T09:07:36.801Z,30.42
2019-06-27T09:10:05.144Z,30.23
2019-06-27T09:12:32.666Z,30.40
2019-06-27T09:15:00.249Z,30.38
2019-06-27T09:17:27.691Z,30.11
2019-06-27T09:19:55.111Z,29.92
2019-06-27T09:22:22.612Z,29.98
2019-06-27T09:24:50.055Z,30.08
2019-06-27T09:27:17.584Z,29.80
2019-06-27T09:29:45.016Z,29.75
2019-06-27T09:32:24.696Z,30.06
2019-06-27T09:34:41.780Z,29.90
2019-06-27T09:37:09.218Z,30.05
2019-06-27T09:39:36.650Z,30.29
2019-06-27T09:42:04.055Z,30.25
2019-06-27T09:44:31.503Z,30.12
2019-06-27T09:46:58.938Z,29.91
2019-06-27T09:49:26.965Z,29.80
2019-06-27T09:51:54.427Z,29.77
2019-06-27T09:54:21.947Z,29.67
2019-06-27T09:56:49.933Z,30.10
2019-06-27T09:59:17.448Z,30.28
2019-06-27T10:01:45.141Z,30.28
2019-06-27T10:04:12.557Z,30.42
2019-06-27T10:06:40.073Z,30.46
2019-06-27T10:09:07.562Z,30.23
2019-06-27T10:11:35.009Z,30.09
2019-06-27T10:14:02.588Z,30.16
2019-06-27T10:16:30.198Z,30.17
2019-06-27T10:18:57.644Z,30.36
2019-06-27T10:21:25.010Z,30.78
2019-06-27T10:23:52.428Z,30.96
2019-06-27T10:26:19.866Z,31.08
2019-06-27T10:28:47.277Z,30.87
2019-06-27T10:31:14.633Z,31.00
2019-06-27T10:33:42.069Z,31.22
2019-06-27T10:36:09.819Z,31.50
2019-06-27T10:38:37.324Z,31.82
2019-06-27T10:41:04.707Z,31.80
2019-06-27T10:43:32.266Z,31.40
2019-06-27T10:45:59.687Z,31.02
2019-06-27T10:48:27.124Z,30.94
2019-06-27T10:50:54.916Z,30.75
2019-06-27T10:53:22.558Z,30.84
2019-06-27T10:55:49.991Z,31.11
2019-06-27T10:58:17.502Z,31.02
2019-06-27T11:00:45.044Z,30.76
2019-06-27T11:03:16.005Z,30.90
2019-06-27T11:05:42.073Z,30.89
2019-06-27T11:08:09.464Z,31.05
2019-06-27T11:10:37.023Z,31.49
2019-06-27T11:13:04.524Z,31.71
2019-06-27T11:15:31.920Z,32.20
2019-06-27T11:17:59.471Z,32.65
2019-06-27T11:20:26.902Z,32.74
2019-06-27T11:22:54.290Z,32.85
2019-06-27T11:25:22.087Z,33.01
2019-06-27T11:27:49.535Z,33.35
2019-06-27T11:30:18.909Z,33.18
2019-06-27T11:32:46.345Z,33.25
2019-06-27T11:35:13.723Z,32.82
2019-06-27T11:37:41.187Z,32.43
2019-06-27T11:40:12.089Z,31.51
2019-06-27T11:42:38.545Z,31.15
2019-06-27T11:45:07.219Z,30.95
2019-06-27T11:47:34.862Z,31.06
2019-06-27T11:50:02.430Z,31.22
2019-06-27T11:52:29.790Z,31.74
2019-06-27T11:54:57.235Z,31.88
2019-06-27T11:57:25.214Z,31.49
2019-06-27T11:59:52.605Z,31.28
2019-06-27T12:02:20.047Z,31.29
2019-06-27T12:04:47.506Z,31.50
2019-06-27T12:07:14.993Z,31.37
2019-06-27T12:09:42.475Z,31.41
2019-06-27T12:12:09.879Z,31.26
2019-06-27T12:14:37.311Z,31.19
2019-06-27T12:17:04.729Z,31.10
2019-06-27T12:19:32.224Z,31.16
2019-06-27T12:21:59.703Z,31.67
2019-06-27T12:24:27.158Z,31.96
2019-06-27T12:26:54.639Z,32.44
2019-06-27T12:29:21.966Z,32.54
2019-06-27T12:31:51.667Z,32.76
2019-06-27T12:34:18.711Z,33.01
2019-06-27T12:36:46.652Z,32.60
2019-06-27T12:39:14.709Z,32.20
2019-06-27T12:41:42.161Z,31.97
2019-06-27T12:44:10.430Z,32.02
2019-06-27T12:46:38.677Z,32.28
2019-06-27T12:49:06.210Z,32.61
2019-06-27T12:51:33.660Z,32.57
2019-06-27T12:54:01.110Z,32.56
2019-06-27T12:56:29.294Z,32.46
2019-06-27T12:58:57.055Z,32.28
2019-06-27T13:01:24.605Z,31.87
2019-06-27T13:03:52.002Z,31.84
2019-06-27T13:06:19.451Z,31.70
2019-06-27T13:08:46.869Z,32.04
2019-06-27T13:11:14.301Z,32.10
2019-06-27T13:13:41.737Z,31.83
2019-06-27T13:16:09.192Z,31.71
2019-06-27T13:18:36.559Z,31.61
2019-06-27T13:21:04.282Z,31.39
2019-06-27T13:23:31.742Z,31.24
2019-06-27T13:25:59.210Z,31.26
2019-06-27T13:28:26.605Z,31.31
2019-06-27T13:30:54.051Z,31.36
2019-06-27T13:33:21.423Z,31.26
2019-06-27T13:35:49.301Z,31.27
2019-06-27T13:38:16.771Z,31.15
2019-06-27T13:40:44.276Z,31.26
2019-06-27T13:43:11.620Z,31.72
2019-06-27T13:45:39.095Z,31.64
2019-06-27T13:48:06.557Z,31.59
2019-06-27T13:50:34.012Z,31.54
2019-06-27T13:53:01.444Z,31.54
2019-06-27T13:55:29.047Z,31.58
2019-06-27T13:57:57.817Z,31.46
2019-06-27T14:00:37.590Z,31.42
2019-06-27T14:03:05.015Z,31.24
2019-06-27T14:05:32.446Z,31.49
2019-06-27T14:07:59.880Z,31.62
2019-06-27T14:10:27.268Z,31.55
2019-06-27T14:12:54.649Z,31.53
2019-06-27T14:15:22.174Z,31.51
2019-06-27T14:17:49.604Z,31.46
2019-06-27T14:20:17.114Z,31.43
2019-06-27T14:22:44.647Z,31.39
2019-06-27T14:25:12.300Z,31.38
2019-06-27T14:27:39.668Z,31.38
2019-06-27T14:30:08.771Z,31.34
2019-06-27T14:32:36.197Z,31.45
2019-06-27T14:35:14.737Z,31.52
2019-06-27T14:37:33.560Z,31.48
2019-06-27T14:40:01.116Z,31.53
2019-06-27T14:42:28.543Z,31.54
2019-06-27T14:44:56.024Z,31.58
2019-06-27T14:47:23.402Z,31.56
2019-06-27T14:49:50.991Z,31.56
2019-06-27T14:52:18.416Z,31.83
2019-06-27T14:54:47.321Z,32.29
2019-06-27T14:57:14.988Z,32.42
2019-06-27T14:59:43.092Z,32.28
2019-06-27T15:02:10.451Z,32.07
2019-06-27T15:04:37.871Z,32.23
2019-06-27T15:07:05.409Z,32.47
2019-06-27T15:09:33.013Z,32.52
2019-06-27T15:12:00.483Z,32.70
2019-06-27T15:14:27.834Z,32.62
2019-06-27T15:16:55.338Z,32.62
2019-06-27T15:19:22.792Z,32.44
2019-06-27T15:21:50.182Z,32.24
2019-06-27T15:24:17.737Z,32.18
2019-06-27T15:26:45.287Z,32.30
2019-06-27T15:29:12.752Z,32.12
2019-06-27T15:31:40.140Z,31.77
2019-06-27T15:34:07.574Z,31.68
2019-06-27T15:36:35.018Z,31.63
2019-06-27T15:39:03.932Z,31.50
2019-06-27T15:41:31.410Z,31.70
2019-06-27T15:43:58.790Z,31.86
2019-06-27T15:46:26.219Z,32.10
2019-06-27T15:48:53.635Z,32.23
2019-06-27T15:51:21.002Z,32.35
2019-06-27T15:53:48.444Z,32.39
2019-06-27T15:56:15.924Z,32.30
2019-06-27T15:58:43.398Z,32.04
2019-06-27T16:01:10.779Z,31.89
2019-06-27T16:03:38.207Z,31.77
2019-06-27T16:06:09.739Z,31.67
2019-06-27T16:08:34.972Z,31.59
2019-06-27T16:11:02.410Z,31.43
2019-06-27T16:13:29.783Z,31.40
2019-06-27T16:15:57.192Z,31.26
2019-06-27T16:18:24.628Z,31.15
2019-06-27T16:20:52.012Z,31.20
2019-06-27T16:23:19.440Z,31.22
2019-06-27T16:25:47.022Z,31.20
2019-06-27T16:28:14.456Z,31.19
2019-06-27T16:30:41.874Z,31.40
2019-06-27T16:33:09.334Z,31.52
2019-06-27T16:35:36.809Z,31.36
2019-06-27T16:38:04.238Z,31.24
2019-06-27T16:40:31.670Z,31.18
2019-06-27T16:42:59.113Z,31.10
2019-06-27T16:45:26.637Z,31.22
2019-06-27T16:47:54.027Z,31.46
2019-06-27T16:50:21.594Z,31.74
2019-06-27T16:52:49.030Z,31.88
2019-06-27T16:55:16.524Z,31.71
2019-06-27T16:57:43.972Z,31.67
2019-06-27T17:00:11.815Z,31.83
2019-06-27T17:02:39.291Z,31.86
2019-06-27T17:05:07.224Z,31.85
2019-06-27T17:07:34.703Z,31.76
2019-06-27T17:10:02.082Z,31.70
2019-06-27T17:12:29.485Z,31.34
2019-06-27T17:14:56.973Z,31.12
2019-06-27T17:17:24.400Z,31.06
2019-06-27T17:19:51.824Z,30.96
2019-06-27T17:22:19.178Z,30.81
2019-06-27T17:24:46.601Z,30.71
2019-06-27T17:27:14.147Z,30.62
2019-06-27T17:29:41.553Z,30.49
2019-06-27T17:32:09.685Z,30.36
2019-06-27T17:34:37.189Z,30.29
2019-06-27T17:37:04.696Z,30.22
2019-06-27T17:39:32.117Z,30.16
2019-06-27T17:41:59.595Z,30.09
2019-06-27T17:44:27.033Z,29.99
2019-06-27T17:46:54.463Z,29.75
2019-06-27T17:49:21.872Z,29.65
2019-06-27T17:51:49.286Z,29.50
2019-06-27T17:54:16.710Z,29.29
2019-06-27T17:56:44.180Z,29.17
2019-06-27T17:59:11.610Z,28.99
2019-06-27T18:01:38.996Z,28.85
2019-06-27T18:04:06.435Z,28.75
2019-06-27T18:06:33.884Z,28.65
2019-06-27T18:09:01.320Z,28.60
2019-06-27T18:11:28.775Z,28.49
2019-06-27T18:13:56.130Z,28.48
2019-06-27T18:16:23.609Z,28.33
2019-06-27T18:18:51.072Z,28.29
2019-06-27T18:21:18.614Z,28.20
2019-06-27T18:23:46.071Z,28.17
2019-06-27T18:26:13.580Z,28.05
2019-06-27T18:28:41.104Z,28.00
2019-06-27T18:31:08.598Z,27.87
2019-06-27T18:33:36.112Z,27.68
2019-06-27T18:36:03.594Z,27.69
2019-06-27T18:38:31.060Z,27.63
2019-06-27T18:40:58.472Z,27.62
2019-06-27T18:43:25.977Z,27.58
2019-06-27T18:45:53.427Z,27.52
2019-06-27T18:48:20.862Z,27.44
2019-06-27T18:50:48.361Z,27.41
2019-06-27T18:53:15.914Z,27.54
2019-06-27T18:55:43.605Z,27.51
2019-06-27T18:58:11.020Z,27.47
2019-06-27T19:00:39.077Z,27.49
2019-06-27T19:03:06.524Z,27.43
2019-06-27T19:05:34.065Z,27.50
2019-06-27T19:08:01.498Z,27.42
2019-06-27T19:10:29.081Z,27.36
2019-06-27T19:12:56.531Z,27.37
2019-06-27T19:15:24.010Z,27.31
2019-06-27T19:17:51.446Z,27.30
2019-06-27T19:20:34.237Z,27.34
2019-06-27T19:23:19.871Z,27.42
2019-06-27T19:25:48.672Z,27.43
2019-06-27T19:28:16.063Z,27.38
2019-06-27T19:30:43.611Z,27.39
2019-06-27T19:33:11.193Z,27.33
2019-06-27T19:35:38.626Z,27.26
2019-06-27T19:38:06.151Z,27.21
2019-06-27T19:40:33.583Z,27.04
2019-06-27T19:43:01.245Z,26.97
2019-06-27T19:45:28.709Z,26.92
2019-06-27T19:47:56.145Z,26.93
2019-06-27T19:50:23.523Z,26.89
2019-06-27T19:52:50.968Z,26.86
2019-06-27T19:55:18.403Z,26.96
2019-06-27T19:57:46.364Z,26.95
2019-06-27T20:00:14.166Z,27.01
2019-06-27T20:02:41.584Z,26.93
2019-06-27T20:05:09.681Z,26.86
2019-06-27T20:07:37.062Z,26.81
2019-06-27T20:10:05.179Z,26.90
2019-06-27T20:12:32.602Z,26.99
2019-06-27T20:14:59.967Z,26.98
2019-06-27T20:17:27.386Z,27.01
2019-06-27T20:19:54.952Z,26.71
2019-06-27T20:22:22.508Z,26.37
2019-06-27T20:24:49.893Z,26.37
2019-06-27T20:27:17.325Z,26.14
2019-06-27T20:29:44.775Z,26.37
2019-06-27T20:32:12.326Z,26.24
2019-06-27T20:34:41.284Z,26.02
2019-06-27T20:37:08.758Z,26.06
2019-06-27T20:39:36.110Z,25.95
2019-06-27T20:42:03.526Z,25.90
2019-06-27T20:44:31.021Z,25.85
2019-06-27T20:46:58.463Z,25.76
2019-06-27T20:49:25.819Z,25.74
2019-06-27T20:51:53.275Z,25.70
2019-06-27T20:54:20.682Z,25.58
2019-06-27T20:56:48.064Z,25.56
2019-06-27T20:59:15.455Z,25.48
2019-06-27T21:01:42.859Z,25.46
2019-06-27T21:04:10.221Z,25.41
2019-06-27T21:06:37.670Z,25.39
2019-06-27T21:09:05.435Z,25.37
2019-06-27T21:11:32.798Z,25.22
2019-06-27T21:14:00.198Z,25.27
2019-06-27T21:16:27.642Z,25.40
2019-06-27T21:18:55.006Z,25.34
2019-06-27T21:21:22.499Z,25.13
2019-06-27T21:23:49.904Z,25.03
2019-06-27T21:26:17.387Z,24.93
2019-06-27T21:28:44.811Z,24.89
2019-06-27T21:31:12.351Z,25.02
2019-06-27T21:33:39.879Z,25.05
2019-06-27T21:36:07.401Z,25.13
2019-06-27T21:38:34.813Z,25.15
2019-06-27T21:41:02.244Z,25.22
2019-06-27T21:43:29.653Z,25.17
2019-06-27T21:45:57.013Z,24.96
2019-06-27T21:48:24.422Z,24.89
2019-06-27T21:50:51.840Z,24.80
2019-06-27T21:53:19.243Z,24.83
2019-06-27T21:55:46.698Z,24.82
2019-06-27T21:58:14.111Z,24.78
2019-06-27T22:00:42.682Z,24.82
2019-06-27T22:03:10.275Z,24.59
2019-06-27T22:05:37.963Z,24.91
2019-06-27T22:08:05.512Z,24.70
2019-06-27T22:10:33.146Z,24.59
2019-06-27T22:13:00.526Z,24.54
2019-06-27T22:15:28.077Z,24.62
2019-06-27T22:17:55.682Z,24.69
2019-06-27T22:20:23.201Z,24.74
2019-06-27T22:22:50.879Z,24.87
2019-06-27T22:25:18.320Z,25.01
2019-06-27T22:27:45.782Z,24.95
2019-06-27T22:30:14.016Z,25.07
2019-06-27T22:32:41.455Z,25.06
2019-06-27T22:35:09.465Z,25.13
2019-06-27T22:37:36.377Z,25.29
2019-06-27T22:40:22.213Z,25.24
2019-06-27T22:43:07.639Z,25.13
2019-06-27T22:45:53.105Z,24.96
2019-06-27T22:48:20.734Z,25.04
2019-06-27T22:51:10.984Z,25.09
2019-06-27T22:53:45.332Z,25.17
2019-06-27T22:56:12.812Z,25.26
2019-06-27T22:58:40.212Z,25.19
2019-06-27T23:01:07.905Z,25.23
2019-06-27T23:03:35.290Z,25.13
2019-06-27T23:06:02.711Z,25.21
2019-06-27T23:08:30.120Z,24.92
2019-06-27T23:10:57.632Z,24.98
2019-06-27T23:13:24.993Z,24.97
2019-06-27T23:15:52.561Z,25.02
2019-06-27T23:18:20.021Z,25.01
2019-06-27T23:20:47.504Z,24.98
2019-06-27T23:23:14.943Z,24.95
2019-06-27T23:25:42.354Z,24.95
2019-06-27T23:28:09.753Z,24.99
2019-06-27T23:30:37.203Z,24.77
2019-06-27T23:33:04.728Z,24.80
2019-06-27T23:35:32.250Z,24.52
2019-06-27T23:37:59.731Z,24.50
2019-06-27T23:40:27.264Z,24.46
2019-06-27T23:42:54.640Z,24.29
2019-06-27T23:45:22.064Z,24.32
2019-06-27T23:47:49.493Z,24.42
2019-06-27T23:50:16.915Z,24.32
2019-06-27T23:52:44.334Z,24.15
2019-06-27T23:55:11.877Z,24.16
2019-06-27T23:57:39.386Z,24.10
